sensor_id;sensor_type;location;lat;lon;timestamp;P1;durP1;ratioP1;P2;durP2;ratioP2
64959;SDS011;51487;52.266;10.542;2023-02-04T00:01:46;2.60;;;1.70;;
64959;SDS011;51487;52.266;10.542;2023-02-04T00:04:12;2.75;;;1.60;;
64959;SDS011;51487;52.266;10.542;2023-02-04T00:06:38;3.60;;;1.60;;
64959;SDS011;51487;52.266;10.542;2023-02-04T00:09:04;3.03;;;1.52;;
64959;SDS011;51487;52.266;10.542;2023-02-04T00:11:30;2.40;;;1.65;;
64959;SDS011;51487;52.266;10.542;2023-02-04T00:13:55;2.83;;;1.55;;
64959;SDS011;51487;52.266;10.542;2023-02-04T00:16:21;2.63;;;1.60;;
64959;SDS011;51487;52.266;10.542;2023-02-04T00:18:47;3.10;;;1.80;;
64959;SDS011;51487;52.266;10.542;2023-02-04T00:21:12;1.98;;;1.40;;
64959;SDS011;51487;52.266;10.542;2023-02-04T00:23:38;4.03;;;1.40;;
64959;SDS011;51487;52.266;10.542;2023-02-04T00:26:03;2.72;;;1.33;;
64959;SDS011;51487;52.266;10.542;2023-02-04T00:28:29;2.25;;;1.38;;
64959;SDS011;51487;52.266;10.542;2023-02-04T00:30:55;1.50;;;1.40;;
64959;SDS011;51487;52.266;10.542;2023-02-04T00:33:20;1.98;;;1.50;;
64959;SDS011;51487;52.266;10.542;2023-02-04T00:35:46;1.95;;;1.67;;
64959;SDS011;51487;52.266;10.542;2023-02-04T00:38:11;1.67;;;1.40;;
64959;SDS011;51487;52.266;10.542;2023-02-04T00:40:37;2.15;;;1.45;;
64959;SDS011;51487;52.266;10.542;2023-02-04T00:43:02;1.58;;;1.48;;
64959;SDS011;51487;52.266;10.542;2023-02-04T00:45:28;3.05;;;1.70;;
64959;SDS011;51487;52.266;10.542;2023-02-04T00:47:53;1.80;;;1.40;;
64959;SDS011;51487;52.266;10.542;2023-02-04T00:50:19;1.90;;;1.60;;
64959;SDS011;51487;52.266;10.542;2023-02-04T00:52:44;2.85;;;1.50;;
64959;SDS011;51487;52.266;10.542;2023-02-04T00:55:10;3.95;;;1.73;;
64959;SDS011;51487;52.266;10.542;2023-02-04T00:57:36;1.60;;;1.50;;
64959;SDS011;51487;52.266;10.542;2023-02-04T01:00:03;2.78;;;1.52;;
64959;SDS011;51487;52.266;10.542;2023-02-04T01:02:30;4.00;;;1.60;;
64959;SDS011;51487;52.266;10.542;2023-02-04T01:04:56;2.90;;;1.60;;
64959;SDS011;51487;52.266;10.542;2023-02-04T01:07:21;2.60;;;1.55;;
64959;SDS011;51487;52.266;10.542;2023-02-04T01:09:47;2.72;;;1.40;;
64959;SDS011;51487;52.266;10.542;2023-02-04T01:12:13;2.00;;;1.65;;
64959;SDS011;51487;52.266;10.542;2023-02-04T01:14:38;1.50;;;1.40;;
64959;SDS011;51487;52.266;10.542;2023-02-04T01:17:04;1.50;;;1.40;;
64959;SDS011;51487;52.266;10.542;2023-02-04T01:19:30;1.50;;;1.40;;
64959;SDS011;51487;52.266;10.542;2023-02-04T01:21:55;2.92;;;1.88;;
64959;SDS011;51487;52.266;10.542;2023-02-04T01:24:21;1.55;;;1.45;;
64959;SDS011;51487;52.266;10.542;2023-02-04T01:26:46;1.75;;;1.65;;
64959;SDS011;51487;52.266;10.542;2023-02-04T01:29:12;1.63;;;1.50;;
64959;SDS011;51487;52.266;10.542;2023-02-04T01:31:37;2.58;;;1.38;;
64959;SDS011;51487;52.266;10.542;2023-02-04T01:34:03;1.50;;;1.40;;
64959;SDS011;51487;52.266;10.542;2023-02-04T01:36:28;2.08;;;1.45;;
64959;SDS011;51487;52.266;10.542;2023-02-04T01:38:54;2.75;;;1.60;;
64959;SDS011;51487;52.266;10.542;2023-02-04T01:41:19;1.67;;;1.30;;
64959;SDS011;51487;52.266;10.542;2023-02-04T01:43:45;3.30;;;1.52;;
64959;SDS011;51487;52.266;10.542;2023-02-04T01:46:11;1.30;;;1.20;;
64959;SDS011;51487;52.266;10.542;2023-02-04T01:48:37;4.00;;;1.58;;
64959;SDS011;51487;52.266;10.542;2023-02-04T01:51:04;1.85;;;1.40;;
64959;SDS011;51487;52.266;10.542;2023-02-04T01:53:35;1.70;;;1.52;;
64959;SDS011;51487;52.266;10.542;2023-02-04T01:56:01;2.97;;;1.48;;
64959;SDS011;51487;52.266;10.542;2023-02-04T01:58:44;2.60;;;1.33;;
64959;SDS011;51487;52.266;10.542;2023-02-04T02:01:15;2.60;;;1.65;;
64959;SDS011;51487;52.266;10.542;2023-02-04T02:03:59;2.22;;;1.50;;
64959;SDS011;51487;52.266;10.542;2023-02-04T02:06:25;3.83;;;1.63;;
64959;SDS011;51487;52.266;10.542;2023-02-04T02:08:51;1.52;;;1.42;;
64959;SDS011;51487;52.266;10.542;2023-02-04T02:11:16;2.15;;;1.70;;
64959;SDS011;51487;52.266;10.542;2023-02-04T02:13:42;3.30;;;1.70;;
64959;SDS011;51487;52.266;10.542;2023-02-04T02:16:07;2.08;;;1.70;;
64959;SDS011;51487;52.266;10.542;2023-02-04T02:18:33;3.58;;;1.50;;
64959;SDS011;51487;52.266;10.542;2023-02-04T02:20:59;2.25;;;1.80;;
64959;SDS011;51487;52.266;10.542;2023-02-04T02:26:25;3.40;;;1.90;;
64959;SDS011;51487;52.266;10.542;2023-02-04T02:28:51;3.08;;;1.67;;
64959;SDS011;51487;52.266;10.542;2023-02-04T02:31:19;3.67;;;1.77;;
64959;SDS011;51487;52.266;10.542;2023-02-04T02:33:47;2.08;;;1.70;;
64959;SDS011;51487;52.266;10.542;2023-02-04T02:36:13;3.85;;;1.60;;
64959;SDS011;51487;52.266;10.542;2023-02-04T02:38:39;2.90;;;1.77;;
64959;SDS011;51487;52.266;10.542;2023-02-04T02:41:05;2.33;;;1.60;;
64959;SDS011;51487;52.266;10.542;2023-02-04T02:43:34;6.70;;;1.70;;
64959;SDS011;51487;52.266;10.542;2023-02-04T02:46:01;2.53;;;1.80;;
64959;SDS011;51487;52.266;10.542;2023-02-04T02:48:27;3.00;;;1.83;;
64959;SDS011;51487;52.266;10.542;2023-02-04T02:50:53;2.40;;;1.75;;
64959;SDS011;51487;52.266;10.542;2023-02-04T02:53:19;3.95;;;1.92;;
64959;SDS011;51487;52.266;10.542;2023-02-04T02:55:45;3.13;;;1.90;;
64959;SDS011;51487;52.266;10.542;2023-02-04T02:58:22;1.90;;;1.70;;
64959;SDS011;51487;52.266;10.542;2023-02-04T03:00:56;3.25;;;1.90;;
64959;SDS011;51487;52.266;10.542;2023-02-04T03:03:46;1.90;;;1.70;;
64959;SDS011;51487;52.266;10.542;2023-02-04T03:06:14;1.95;;;1.45;;
64959;SDS011;51487;52.266;10.542;2023-02-04T03:08:47;2.55;;;1.90;;
64959;SDS011;51487;52.266;10.542;2023-02-04T03:11:19;2.28;;;1.73;;
64959;SDS011;51487;52.266;10.542;2023-02-04T03:13:46;2.92;;;2.03;;
64959;SDS011;51487;52.266;10.542;2023-02-04T03:16:12;3.80;;;2.00;;
64959;SDS011;51487;52.266;10.542;2023-02-04T03:18:38;2.45;;;1.88;;
64959;SDS011;51487;52.266;10.542;2023-02-04T03:21:04;2.97;;;1.83;;
64959;SDS011;51487;52.266;10.542;2023-02-04T03:23:34;4.65;;;2.10;;
64959;SDS011;51487;52.266;10.542;2023-02-04T03:26:01;3.03;;;1.83;;
64959;SDS011;51487;52.266;10.542;2023-02-04T03:28:28;2.08;;;1.88;;
64959;SDS011;51487;52.266;10.542;2023-02-04T03:30:55;2.42;;;1.98;;
64959;SDS011;51487;52.266;10.542;2023-02-04T03:33:22;2.10;;;1.90;;
64959;SDS011;51487;52.266;10.542;2023-02-04T03:35:50;2.05;;;1.85;;
64959;SDS011;51487;52.266;10.542;2023-02-04T03:38:16;2.13;;;1.85;;
64959;SDS011;51487;52.266;10.542;2023-02-04T03:40:43;3.65;;;1.90;;
64959;SDS011;51487;52.266;10.542;2023-02-04T03:43:08;3.17;;;2.05;;
64959;SDS011;51487;52.266;10.542;2023-02-04T03:45:34;2.20;;;2.00;;
64959;SDS011;51487;52.266;10.542;2023-02-04T03:48:00;3.85;;;2.05;;
64959;SDS011;51487;52.266;10.542;2023-02-04T03:50:25;2.60;;;1.90;;
64959;SDS011;51487;52.266;10.542;2023-02-04T03:52:51;4.10;;;2.10;;
64959;SDS011;51487;52.266;10.542;2023-02-04T03:55:17;2.20;;;2.00;;
64959;SDS011;51487;52.266;10.542;2023-02-04T03:57:44;3.05;;;2.22;;
64959;SDS011;51487;52.266;10.542;2023-02-04T04:00:10;3.22;;;2.00;;
64959;SDS011;51487;52.266;10.542;2023-02-04T04:02:36;3.60;;;1.98;;
64959;SDS011;51487;52.266;10.542;2023-02-04T04:05:02;3.15;;;2.10;;
64959;SDS011;51487;52.266;10.542;2023-02-04T04:07:27;2.97;;;2.10;;
64959;SDS011;51487;52.266;10.542;2023-02-04T04:09:53;2.28;;;2.08;;
64959;SDS011;51487;52.266;10.542;2023-02-04T04:12:18;3.22;;;2.15;;
64959;SDS011;51487;52.266;10.542;2023-02-04T04:14:44;2.55;;;2.20;;
64959;SDS011;51487;52.266;10.542;2023-02-04T04:17:09;5.38;;;2.45;;
64959;SDS011;51487;52.266;10.542;2023-02-04T04:19:35;2.47;;;2.28;;
64959;SDS011;51487;52.266;10.542;2023-02-04T04:22:00;2.63;;;2.20;;
64959;SDS011;51487;52.266;10.542;2023-02-04T04:24:26;2.30;;;2.10;;
64959;SDS011;51487;52.266;10.542;2023-02-04T04:26:51;2.70;;;2.10;;
64959;SDS011;51487;52.266;10.542;2023-02-04T04:29:17;4.13;;;2.38;;
64959;SDS011;51487;52.266;10.542;2023-02-04T04:31:42;2.28;;;1.90;;
64959;SDS011;51487;52.266;10.542;2023-02-04T04:34:09;2.28;;;2.08;;
64959;SDS011;51487;52.266;10.542;2023-02-04T04:36:35;4.15;;;2.30;;
64959;SDS011;51487;52.266;10.542;2023-02-04T04:39:01;1.83;;;1.73;;
64959;SDS011;51487;52.266;10.542;2023-02-04T04:41:27;3.08;;;1.92;;
64959;SDS011;51487;52.266;10.542;2023-02-04T04:43:52;2.25;;;2.03;;
64959;SDS011;51487;52.266;10.542;2023-02-04T04:46:18;3.50;;;2.25;;
64959;SDS011;51487;52.266;10.542;2023-02-04T04:48:43;2.55;;;2.17;;
64959;SDS011;51487;52.266;10.542;2023-02-04T04:51:09;3.88;;;2.45;;
64959;SDS011;51487;52.266;10.542;2023-02-04T04:53:35;3.13;;;2.20;;
64959;SDS011;51487;52.266;10.542;2023-02-04T04:56:01;2.30;;;2.10;;
64959;SDS011;51487;52.266;10.542;2023-02-04T04:58:26;3.15;;;2.45;;
64959;SDS011;51487;52.266;10.542;2023-02-04T05:00:51;2.70;;;1.90;;
64959;SDS011;51487;52.266;10.542;2023-02-04T05:03:17;3.42;;;2.17;;
64959;SDS011;51487;52.266;10.542;2023-02-04T05:05:42;3.72;;;2.10;;
64959;SDS011;51487;52.266;10.542;2023-02-04T05:08:08;2.42;;;2.10;;
64959;SDS011;51487;52.266;10.542;2023-02-04T05:10:37;2.45;;;2.25;;
64959;SDS011;51487;52.266;10.542;2023-02-04T05:13:04;3.40;;;2.20;;
64959;SDS011;51487;52.266;10.542;2023-02-04T05:15:29;3.35;;;2.30;;
64959;SDS011;51487;52.266;10.542;2023-02-04T05:17:55;2.38;;;2.22;;
64959;SDS011;51487;52.266;10.542;2023-02-04T05:20:22;2.42;;;2.22;;
64959;SDS011;51487;52.266;10.542;2023-02-04T05:22:48;3.83;;;2.83;;
64959;SDS011;51487;52.266;10.542;2023-02-04T05:25:14;3.45;;;2.10;;
64959;SDS011;51487;52.266;10.542;2023-02-04T05:27:41;2.65;;;2.08;;
64959;SDS011;51487;52.266;10.542;2023-02-04T05:30:09;2.90;;;2.03;;
64959;SDS011;51487;52.266;10.542;2023-02-04T05:32:37;4.43;;;2.40;;
64959;SDS011;51487;52.266;10.542;2023-02-04T05:35:03;2.28;;;2.08;;
64959;SDS011;51487;52.266;10.542;2023-02-04T05:37:29;2.00;;;1.80;;
64959;SDS011;51487;52.266;10.542;2023-02-04T05:39:56;2.10;;;1.90;;
64959;SDS011;51487;52.266;10.542;2023-02-04T05:42:21;3.17;;;1.90;;
64959;SDS011;51487;52.266;10.542;2023-02-04T05:44:47;2.95;;;2.22;;
64959;SDS011;51487;52.266;10.542;2023-02-04T05:47:13;2.92;;;2.38;;
64959;SDS011;51487;52.266;10.542;2023-02-04T05:49:39;6.22;;;2.20;;
64959;SDS011;51487;52.266;10.542;2023-02-04T05:52:04;3.50;;;2.72;;
64959;SDS011;51487;52.266;10.542;2023-02-04T05:54:30;3.08;;;2.40;;
64959;SDS011;51487;52.266;10.542;2023-02-04T05:56:56;3.78;;;2.17;;
64959;SDS011;51487;52.266;10.542;2023-02-04T05:59:22;2.20;;;2.00;;
64959;SDS011;51487;52.266;10.542;2023-02-04T06:01:47;3.70;;;2.25;;
64959;SDS011;51487;52.266;10.542;2023-02-04T06:04:13;2.33;;;2.00;;
64959;SDS011;51487;52.266;10.542;2023-02-04T06:06:40;3.88;;;2.20;;
64959;SDS011;51487;52.266;10.542;2023-02-04T06:09:07;4.53;;;2.10;;
64959;SDS011;51487;52.266;10.542;2023-02-04T06:11:32;4.60;;;2.30;;
64959;SDS011;51487;52.266;10.542;2023-02-04T06:13:58;3.00;;;2.15;;
64959;SDS011;51487;52.266;10.542;2023-02-04T06:16:23;2.65;;;2.30;;
64959;SDS011;51487;52.266;10.542;2023-02-04T06:18:49;2.97;;;2.33;;
64959;SDS011;51487;52.266;10.542;2023-02-04T06:21:15;2.55;;;2.10;;
64959;SDS011;51487;52.266;10.542;2023-02-04T06:23:40;2.33;;;2.13;;
64959;SDS011;51487;52.266;10.542;2023-02-04T06:26:06;7.63;;;2.55;;
64959;SDS011;51487;52.266;10.542;2023-02-04T06:28:31;3.20;;;2.40;;
64959;SDS011;51487;52.266;10.542;2023-02-04T06:30:57;4.03;;;2.55;;
64959;SDS011;51487;52.266;10.542;2023-02-04T06:33:22;4.00;;;2.70;;
64959;SDS011;51487;52.266;10.542;2023-02-04T06:35:48;3.97;;;2.72;;
64959;SDS011;51487;52.266;10.542;2023-02-04T06:38:14;5.38;;;2.28;;
64959;SDS011;51487;52.266;10.542;2023-02-04T06:40:40;3.92;;;2.40;;
64959;SDS011;51487;52.266;10.542;2023-02-04T06:43:06;6.38;;;3.05;;
64959;SDS011;51487;52.266;10.542;2023-02-04T06:45:31;3.60;;;2.42;;
64959;SDS011;51487;52.266;10.542;2023-02-04T06:47:57;4.18;;;2.53;;
64959;SDS011;51487;52.266;10.542;2023-02-04T06:50:22;3.83;;;2.38;;
64959;SDS011;51487;52.266;10.542;2023-02-04T06:52:48;4.07;;;2.67;;
64959;SDS011;51487;52.266;10.542;2023-02-04T06:55:14;2.50;;;2.30;;
64959;SDS011;51487;52.266;10.542;2023-02-04T06:57:41;3.25;;;2.47;;
64959;SDS011;51487;52.266;10.542;2023-02-04T07:00:07;2.55;;;2.35;;
64959;SDS011;51487;52.266;10.542;2023-02-04T07:02:35;5.40;;;2.60;;
64959;SDS011;51487;52.266;10.542;2023-02-04T07:05:03;4.38;;;2.75;;
64959;SDS011;51487;52.266;10.542;2023-02-04T07:07:29;3.63;;;2.35;;
64959;SDS011;51487;52.266;10.542;2023-02-04T07:09:54;2.83;;;2.50;;
64959;SDS011;51487;52.266;10.542;2023-02-04T07:12:20;3.33;;;2.55;;
64959;SDS011;51487;52.266;10.542;2023-02-04T07:14:46;4.57;;;2.75;;
64959;SDS011;51487;52.266;10.542;2023-02-04T07:17:11;2.92;;;2.40;;
64959;SDS011;51487;52.266;10.542;2023-02-04T07:19:36;3.17;;;2.60;;
64959;SDS011;51487;52.266;10.542;2023-02-04T07:22:03;7.97;;;2.75;;
64959;SDS011;51487;52.266;10.542;2023-02-04T07:24:29;4.78;;;2.80;;
64959;SDS011;51487;52.266;10.542;2023-02-04T07:26:54;3.78;;;2.45;;
64959;SDS011;51487;52.266;10.542;2023-02-04T07:29:20;3.80;;;2.90;;
64959;SDS011;51487;52.266;10.542;2023-02-04T07:31:46;5.60;;;3.78;;
64959;SDS011;51487;52.266;10.542;2023-02-04T07:34:12;3.20;;;2.80;;
64959;SDS011;51487;52.266;10.542;2023-02-04T07:36:38;4.22;;;2.92;;
64959;SDS011;51487;52.266;10.542;2023-02-04T07:39:04;4.45;;;3.17;;
64959;SDS011;51487;52.266;10.542;2023-02-04T07:41:31;6.40;;;2.67;;
64959;SDS011;51487;52.266;10.542;2023-02-04T07:43:57;3.03;;;2.70;;
64959;SDS011;51487;52.266;10.542;2023-02-04T07:46:22;4.82;;;2.60;;
64959;SDS011;51487;52.266;10.542;2023-02-04T07:48:48;4.03;;;2.72;;
64959;SDS011;51487;52.266;10.542;2023-02-04T07:51:15;3.63;;;2.33;;
64959;SDS011;51487;52.266;10.542;2023-02-04T07:53:40;4.20;;;2.80;;
64959;SDS011;51487;52.266;10.542;2023-02-04T07:56:06;4.15;;;2.83;;
64959;SDS011;51487;52.266;10.542;2023-02-04T07:58:32;3.28;;;2.47;;
64959;SDS011;51487;52.266;10.542;2023-02-04T08:00:58;3.60;;;2.60;;
64959;SDS011;51487;52.266;10.542;2023-02-04T08:03:23;4.40;;;2.92;;
64959;SDS011;51487;52.266;10.542;2023-02-04T08:05:49;4.38;;;2.60;;
64959;SDS011;51487;52.266;10.542;2023-02-04T08:08:14;6.03;;;2.90;;
64959;SDS011;51487;52.266;10.542;2023-02-04T08:10:40;3.47;;;2.60;;
64959;SDS011;51487;52.266;10.542;2023-02-04T08:13:06;3.10;;;2.70;;
64959;SDS011;51487;52.266;10.542;2023-02-04T08:15:32;4.28;;;2.50;;
64959;SDS011;51487;52.266;10.542;2023-02-04T08:17:57;4.60;;;2.45;;
64959;SDS011;51487;52.266;10.542;2023-02-04T08:20:23;5.25;;;3.10;;
64959;SDS011;51487;52.266;10.542;2023-02-04T08:22:48;3.83;;;2.65;;
64959;SDS011;51487;52.266;10.542;2023-02-04T08:25:14;5.70;;;2.80;;
64959;SDS011;51487;52.266;10.542;2023-02-04T08:27:40;4.30;;;2.80;;
64959;SDS011;51487;52.266;10.542;2023-02-04T08:30:06;4.07;;;2.65;;
64959;SDS011;51487;52.266;10.542;2023-02-04T08:32:33;3.35;;;2.83;;
64959;SDS011;51487;52.266;10.542;2023-02-04T08:34:59;6.38;;;2.60;;
64959;SDS011;51487;52.266;10.542;2023-02-04T08:37:25;3.03;;;2.72;;
64959;SDS011;51487;52.266;10.542;2023-02-04T08:39:51;5.03;;;2.78;;
64959;SDS011;51487;52.266;10.542;2023-02-04T08:42:17;3.83;;;2.67;;
64959;SDS011;51487;52.266;10.542;2023-02-04T08:44:43;4.00;;;2.83;;
64959;SDS011;51487;52.266;10.542;2023-02-04T08:47:08;4.85;;;2.60;;
64959;SDS011;51487;52.266;10.542;2023-02-04T08:49:35;2.47;;;2.25;;
64959;SDS011;51487;52.266;10.542;2023-02-04T08:52:01;5.18;;;2.92;;
64959;SDS011;51487;52.266;10.542;2023-02-04T08:54:28;3.95;;;2.40;;
64959;SDS011;51487;52.266;10.542;2023-02-04T08:56:54;3.78;;;2.60;;
64959;SDS011;51487;52.266;10.542;2023-02-04T08:59:19;5.20;;;2.55;;
64959;SDS011;51487;52.266;10.542;2023-02-04T09:01:48;4.35;;;2.80;;
64959;SDS011;51487;52.266;10.542;2023-02-04T09:04:16;3.70;;;2.20;;
64959;SDS011;51487;52.266;10.542;2023-02-04T09:06:44;5.43;;;2.55;;
64959;SDS011;51487;52.266;10.542;2023-02-04T09:09:10;3.88;;;2.38;;
64959;SDS011;51487;52.266;10.542;2023-02-04T09:11:36;3.20;;;2.30;;
64959;SDS011;51487;52.266;10.542;2023-02-04T09:14:01;4.38;;;2.58;;
64959;SDS011;51487;52.266;10.542;2023-02-04T09:16:27;4.07;;;2.00;;
64959;SDS011;51487;52.266;10.542;2023-02-04T09:18:52;3.60;;;2.47;;
64959;SDS011;51487;52.266;10.542;2023-02-04T09:21:18;5.07;;;2.15;;
64959;SDS011;51487;52.266;10.542;2023-02-04T09:23:43;3.28;;;2.45;;
64959;SDS011;51487;52.266;10.542;2023-02-04T09:26:10;3.58;;;2.10;;
64959;SDS011;51487;52.266;10.542;2023-02-04T09:28:39;6.32;;;2.10;;
64959;SDS011;51487;52.266;10.542;2023-02-04T09:31:04;2.33;;;1.90;;
64959;SDS011;51487;52.266;10.542;2023-02-04T09:33:32;2.92;;;2.15;;
64959;SDS011;51487;52.266;10.542;2023-02-04T09:35:59;3.65;;;2.00;;
64959;SDS011;51487;52.266;10.542;2023-02-04T09:38:24;3.05;;;2.08;;
64959;SDS011;51487;52.266;10.542;2023-02-04T09:40:52;4.10;;;2.15;;
64959;SDS011;51487;52.266;10.542;2023-02-04T09:43:25;2.75;;;1.80;;
64959;SDS011;51487;52.266;10.542;2023-02-04T09:45:55;3.50;;;2.30;;
64959;SDS011;51487;52.266;10.542;2023-02-04T09:48:22;4.03;;;2.33;;
64959;SDS011;51487;52.266;10.542;2023-02-04T09:50:49;3.50;;;1.90;;
64959;SDS011;51487;52.266;10.542;2023-02-04T09:53:18;4.10;;;1.98;;
64959;SDS011;51487;52.266;10.542;2023-02-04T09:55:49;3.63;;;1.90;;
64959;SDS011;51487;52.266;10.542;2023-02-04T09:58:17;5.60;;;2.20;;
64959;SDS011;51487;52.266;10.542;2023-02-04T10:00:47;3.85;;;1.90;;
64959;SDS011;51487;52.266;10.542;2023-02-04T10:03:21;6.68;;;2.22;;
64959;SDS011;51487;52.266;10.542;2023-02-04T10:05:47;3.42;;;1.90;;
64959;SDS011;51487;52.266;10.542;2023-02-04T10:08:19;4.10;;;2.40;;
64959;SDS011;51487;52.266;10.542;2023-02-04T10:10:52;3.22;;;1.92;;
64959;SDS011;51487;52.266;10.542;2023-02-04T10:13:37;3.80;;;2.15;;
64959;SDS011;51487;52.266;10.542;2023-02-04T10:16:11;2.72;;;1.90;;
64959;SDS011;51487;52.266;10.542;2023-02-04T10:18:41;2.80;;;1.90;;
64959;SDS011;51487;52.266;10.542;2023-02-04T10:23:48;1.80;;;1.70;;
64959;SDS011;51487;52.266;10.542;2023-02-04T10:26:20;3.58;;;2.00;;
64959;SDS011;51487;52.266;10.542;2023-02-04T10:28:47;4.10;;;2.45;;
64959;SDS011;51487;52.266;10.542;2023-02-04T10:31:33;4.35;;;2.50;;
64959;SDS011;51487;52.266;10.542;2023-02-04T10:36:52;3.63;;;2.35;;
64959;SDS011;51487;52.266;10.542;2023-02-04T10:39:22;2.08;;;1.70;;
64959;SDS011;51487;52.266;10.542;2023-02-04T10:41:58;4.72;;;1.73;;
64959;SDS011;51487;52.266;10.542;2023-02-04T10:44:26;4.22;;;2.33;;
64959;SDS011;51487;52.266;10.542;2023-02-04T10:47:12;2.83;;;1.60;;
64959;SDS011;51487;52.266;10.542;2023-02-04T10:49:59;9.38;;;4.35;;
64959;SDS011;51487;52.266;10.542;2023-02-04T10:52:39;4.20;;;2.50;;
64959;SDS011;51487;52.266;10.542;2023-02-04T10:55:12;6.53;;;2.90;;
64959;SDS011;51487;52.266;10.542;2023-02-04T10:57:44;4.30;;;3.17;;
64959;SDS011;51487;52.266;10.542;2023-02-04T11:00:17;2.08;;;1.83;;
64959;SDS011;51487;52.266;10.542;2023-02-04T11:05:18;3.05;;;2.00;;
64959;SDS011;51487;52.266;10.542;2023-02-04T11:07:47;2.95;;;1.90;;
64959;SDS011;51487;52.266;10.542;2023-02-04T11:10:15;2.33;;;1.80;;
64959;SDS011;51487;52.266;10.542;2023-02-04T11:15:36;1.67;;;1.50;;
64959;SDS011;51487;52.266;10.542;2023-02-04T11:18:10;4.90;;;1.80;;
64959;SDS011;51487;52.266;10.542;2023-02-04T11:20:56;2.88;;;1.60;;
64959;SDS011;51487;52.266;10.542;2023-02-04T11:31:59;3.22;;;2.22;;
64959;SDS011;51487;52.266;10.542;2023-02-04T11:34:50;2.63;;;1.67;;
64959;SDS011;51487;52.266;10.542;2023-02-04T11:39:51;3.28;;;1.70;;
64959;SDS011;51487;52.266;10.542;2023-02-04T11:44:48;2.28;;;1.50;;
64959;SDS011;51487;52.266;10.542;2023-02-04T11:47:16;2.03;;;1.70;;
64959;SDS011;51487;52.266;10.542;2023-02-04T11:49:42;3.90;;;1.75;;
64959;SDS011;51487;52.266;10.542;2023-02-04T11:52:16;2.17;;;1.80;;
64959;SDS011;51487;52.266;10.542;2023-02-04T11:54:42;1.85;;;1.42;;
64959;SDS011;51487;52.266;10.542;2023-02-04T11:57:21;3.45;;;1.85;;
64959;SDS011;51487;52.266;10.542;2023-02-04T11:59:47;3.00;;;1.77;;
64959;SDS011;51487;52.266;10.542;2023-02-04T12:02:17;3.60;;;1.63;;
64959;SDS011;51487;52.266;10.542;2023-02-04T12:04:51;2.20;;;1.60;;
64959;SDS011;51487;52.266;10.542;2023-02-04T12:07:28;3.97;;;1.67;;
64959;SDS011;51487;52.266;10.542;2023-02-04T12:09:55;2.47;;;1.80;;
64959;SDS011;51487;52.266;10.542;2023-02-04T12:12:22;1.55;;;1.45;;
64959;SDS011;51487;52.266;10.542;2023-02-04T12:14:55;1.65;;;1.45;;
64959;SDS011;51487;52.266;10.542;2023-02-04T12:17:37;2.45;;;1.70;;
64959;SDS011;51487;52.266;10.542;2023-02-04T12:20:03;1.70;;;1.60;;
64959;SDS011;51487;52.266;10.542;2023-02-04T12:22:29;2.30;;;1.65;;
64959;SDS011;51487;52.266;10.542;2023-02-04T12:24:54;3.65;;;1.50;;
64959;SDS011;51487;52.266;10.542;2023-02-04T12:27:20;2.50;;;1.60;;
64959;SDS011;51487;52.266;10.542;2023-02-04T12:29:46;2.33;;;1.80;;
64959;SDS011;51487;52.266;10.542;2023-02-04T12:32:12;2.17;;;1.70;;
64959;SDS011;51487;52.266;10.542;2023-02-04T12:34:37;2.03;;;1.60;;
64959;SDS011;51487;52.266;10.542;2023-02-04T12:37:03;2.25;;;1.60;;
64959;SDS011;51487;52.266;10.542;2023-02-04T12:39:28;3.17;;;1.60;;
64959;SDS011;51487;52.266;10.542;2023-02-04T12:41:55;3.40;;;1.50;;
64959;SDS011;51487;52.266;10.542;2023-02-04T12:44:21;2.47;;;1.50;;
64959;SDS011;51487;52.266;10.542;2023-02-04T12:46:47;2.33;;;1.30;;
64959;SDS011;51487;52.266;10.542;2023-02-04T12:49:12;2.45;;;1.92;;
64959;SDS011;51487;52.266;10.542;2023-02-04T12:51:38;3.17;;;1.70;;
64959;SDS011;51487;52.266;10.542;2023-02-04T12:54:03;1.55;;;1.45;;
64959;SDS011;51487;52.266;10.542;2023-02-04T12:56:29;3.05;;;1.70;;
64959;SDS011;51487;52.266;10.542;2023-02-04T12:58:55;1.60;;;1.50;;
64959;SDS011;51487;52.266;10.542;2023-02-04T13:01:20;2.72;;;1.75;;
64959;SDS011;51487;52.266;10.542;2023-02-04T13:03:45;3.40;;;1.58;;
64959;SDS011;51487;52.266;10.542;2023-02-04T13:06:11;1.60;;;1.50;;
64959;SDS011;51487;52.266;10.542;2023-02-04T13:08:37;3.03;;;1.60;;
64959;SDS011;51487;52.266;10.542;2023-02-04T13:11:02;2.90;;;1.60;;
64959;SDS011;51487;52.266;10.542;2023-02-04T13:13:28;2.60;;;1.50;;
64959;SDS011;51487;52.266;10.542;2023-02-04T13:15:53;1.67;;;1.48;;
64959;SDS011;51487;52.266;10.542;2023-02-04T13:18:19;3.10;;;1.65;;
64959;SDS011;51487;52.266;10.542;2023-02-04T13:20:44;2.40;;;1.75;;
64959;SDS011;51487;52.266;10.542;2023-02-04T13:23:10;2.72;;;1.50;;
64959;SDS011;51487;52.266;10.542;2023-02-04T13:25:35;1.60;;;1.50;;
64959;SDS011;51487;52.266;10.542;2023-02-04T13:28:01;1.73;;;1.50;;
64959;SDS011;51487;52.266;10.542;2023-02-04T13:30:26;2.20;;;1.40;;
64959;SDS011;51487;52.266;10.542;2023-02-04T13:32:52;1.77;;;1.45;;
64959;SDS011;51487;52.266;10.542;2023-02-04T13:35:17;2.85;;;1.50;;
64959;SDS011;51487;52.266;10.542;2023-02-04T13:37:43;1.63;;;1.40;;
64959;SDS011;51487;52.266;10.542;2023-02-04T13:40:09;3.95;;;1.42;;
64959;SDS011;51487;52.266;10.542;2023-02-04T13:42:36;3.85;;;1.70;;
64959;SDS011;51487;52.266;10.542;2023-02-04T13:45:01;2.03;;;1.52;;
64959;SDS011;51487;52.266;10.542;2023-02-04T13:47:28;1.90;;;1.50;;
64959;SDS011;51487;52.266;10.542;2023-02-04T13:49:54;1.90;;;1.55;;
64959;SDS011;51487;52.266;10.542;2023-02-04T13:52:20;3.17;;;1.50;;
64959;SDS011;51487;52.266;10.542;2023-02-04T13:54:45;2.22;;;1.70;;
64959;SDS011;51487;52.266;10.542;2023-02-04T13:57:11;2.45;;;1.90;;
64959;SDS011;51487;52.266;10.542;2023-02-04T13:59:36;4.10;;;1.80;;
64959;SDS011;51487;52.266;10.542;2023-02-04T14:02:02;3.22;;;1.77;;
64959;SDS011;51487;52.266;10.542;2023-02-04T14:04:28;1.60;;;1.50;;
64959;SDS011;51487;52.266;10.542;2023-02-04T14:06:53;2.70;;;1.70;;
64959;SDS011;51487;52.266;10.542;2023-02-04T14:09:20;3.03;;;1.63;;
64959;SDS011;51487;52.266;10.542;2023-02-04T14:11:46;2.80;;;1.65;;
64959;SDS011;51487;52.266;10.542;2023-02-04T14:14:12;1.70;;;1.60;;
64959;SDS011;51487;52.266;10.542;2023-02-04T14:16:38;4.13;;;1.83;;
64959;SDS011;51487;52.266;10.542;2023-02-04T14:19:04;3.53;;;1.90;;
64959;SDS011;51487;52.266;10.542;2023-02-04T14:21:31;1.63;;;1.50;;
64959;SDS011;51487;52.266;10.542;2023-02-04T14:23:57;1.98;;;1.70;;
64959;SDS011;51487;52.266;10.542;2023-02-04T14:26:22;2.13;;;1.95;;
64959;SDS011;51487;52.266;10.542;2023-02-04T14:28:48;2.72;;;1.70;;
64959;SDS011;51487;52.266;10.542;2023-02-04T14:31:14;2.53;;;1.90;;
64959;SDS011;51487;52.266;10.542;2023-02-04T14:33:39;3.70;;;2.17;;
64959;SDS011;51487;52.266;10.542;2023-02-04T14:36:05;4.30;;;1.88;;
64959;SDS011;51487;52.266;10.542;2023-02-04T14:38:31;3.67;;;1.58;;
64959;SDS011;51487;52.266;10.542;2023-02-04T14:40:58;2.17;;;1.70;;
64959;SDS011;51487;52.266;10.542;2023-02-04T14:43:24;2.17;;;1.88;;
64959;SDS011;51487;52.266;10.542;2023-02-04T14:45:50;3.67;;;2.10;;
64959;SDS011;51487;52.266;10.542;2023-02-04T14:48:16;3.17;;;1.80;;
64959;SDS011;51487;52.266;10.542;2023-02-04T14:50:42;1.73;;;1.60;;
64959;SDS011;51487;52.266;10.542;2023-02-04T14:53:08;2.45;;;1.77;;
64959;SDS011;51487;52.266;10.542;2023-02-04T14:55:33;2.97;;;1.70;;
64959;SDS011;51487;52.266;10.542;2023-02-04T14:57:59;2.97;;;1.88;;
64959;SDS011;51487;52.266;10.542;2023-02-04T15:00:24;2.58;;;1.90;;